Time;durP1;ratioP1;P1;durP2;ratioP2;P2;SDS_P1;SDS_P2;PMS_P1;PMS_P2;Temp;Humidity;BMP_temperature;BMP_pressure;BME280_temperature;BME280_humidity;BME280_pressure;Samples;Min_cycle;Max_cycle;Signal;HPM_P1;HPM_P2
2022/05/04 00:01:36;;;;;;;5.60;1.33;;;20.40;53.90;;;;;;5012831;28;20045;-56
2022/05/04 00:04:01;;;;;;;1.92;0.90;;;20.40;53.90;;;;;;5012228;28;20042;-56
2022/05/04 00:06:27;;;;;;;4.40;1.10;;;20.40;53.90;;;;;;5011772;28;20049;-56
2022/05/04 00:08:52;;;;;;;3.97;1.30;;;20.40;53.90;;;;;;5012091;28;20041;-56
2022/05/04 00:11:18;;;;;;;4.15;1.10;;;20.40;54.00;;;;;;5011945;28;20057;-56
2022/05/04 00:13:44;;;;;;;2.13;1.02;;;20.40;53.90;;;;;;5011088;28;20045;-56
2022/05/04 00:16:09;;;;;;;2.00;0.95;;;20.40;54.00;;;;;;5012478;28;20045;-57
2022/05/04 00:18:35;;;;;;;2.90;1.30;;;20.40;54.00;;;;;;5012284;28;20041;-56
2022/05/04 00:21:00;;;;;;;3.58;1.10;;;20.30;54.00;;;;;;5011294;28;20104;-56
2022/05/04 00:23:26;;;;;;;2.92;1.10;;;20.40;54.00;;;;;;5012387;28;20034;-56
2022/05/04 00:25:51;;;;;;;3.67;1.10;;;20.40;54.00;;;;;;5012038;28;20508;-56
2022/05/04 00:28:17;;;;;;;3.05;1.00;;;20.30;54.00;;;;;;5011651;28;20118;-57
2022/05/04 00:30:42;;;;;;;2.75;1.10;;;20.30;53.90;;;;;;5013475;28;20405;-56
2022/05/04 00:33:08;;;;;;;2.95;1.23;;;20.30;54.00;;;;;;5015730;28;20165;-56
2022/05/04 00:35:34;;;;;;;2.45;1.00;;;20.30;53.90;;;;;;5014746;28;20127;-56
2022/05/04 00:37:59;;;;;;;2.20;1.05;;;20.30;54.00;;;;;;5015094;28;20245;-57
2022/05/04 00:40:25;;;;;;;3.10;1.17;;;20.30;54.00;;;;;;5015418;28;20556;-57
2022/05/04 00:42:50;;;;;;;2.58;1.30;;;20.30;54.00;;;;;;5014363;28;20052;-57
2022/05/04 00:45:16;;;;;;;3.72;1.30;;;20.30;54.00;;;;;;5015316;28;20167;-56
2022/05/04 00:47:41;;;;;;;2.78;1.08;;;20.30;54.00;;;;;;5014461;28;20134;-56
2022/05/04 00:50:07;;;;;;;2.63;1.30;;;20.30;54.00;;;;;;5015336;28;20046;-56
2022/05/04 00:52:34;;;;;;;1.77;0.90;;;20.30;54.00;;;;;;5015320;28;20052;-56
2022/05/04 00:55:00;;;;;;;2.88;1.48;;;20.20;54.00;;;;;;5014079;28;20366;-56
2022/05/04 01:00:10;;;;;;;3.28;1.10;;;20.20;54.00;;;;;;5000655;28;20038;-56
2022/05/04 01:02:39;;;;;;;4.18;1.30;;;20.20;54.00;;;;;;5014328;28;20046;-56
2022/05/04 01:05:09;;;;;;;4.18;1.20;;;20.20;54.00;;;;;;5015230;28;20069;-56
2022/05/04 01:07:35;;;;;;;1.95;1.00;;;20.20;54.00;;;;;;5015234;28;20060;-57
2022/05/04 01:10:01;;;;;;;3.10;1.10;;;20.20;54.00;;;;;;5012661;28;20084;-57
2022/05/04 01:12:27;;;;;;;2.42;1.20;;;20.20;54.00;;;;;;5015181;28;20461;-56
2022/05/04 01:14:52;;;;;;;2.67;1.13;;;20.20;54.00;;;;;;5014583;28;20049;-56
2022/05/04 01:17:17;;;;;;;2.22;0.98;;;20.20;54.00;;;;;;5013693;28;20041;-57
2022/05/04 01:19:43;;;;;;;4.13;1.20;;;20.20;53.90;;;;;;5014803;28;20062;-57
2022/05/04 01:22:09;;;;;;;2.92;1.30;;;20.20;53.90;;;;;;5015027;28;20049;-56
2022/05/04 01:24:35;;;;;;;4.13;1.20;;;20.20;53.90;;;;;;5014161;28;20061;-56
2022/05/04 01:27:00;;;;;;;3.47;1.23;;;20.20;54.00;;;;;;5014401;28;20046;-56
2022/05/04 01:29:26;;;;;;;2.08;1.10;;;20.10;53.80;;;;;;5014840;28;20076;-57
2022/05/04 01:31:51;;;;;;;4.78;1.50;;;20.20;53.90;;;;;;5013160;28;20105;-56
2022/05/04 01:34:17;;;;;;;1.80;0.80;;;20.20;53.90;;;;;;5014757;28;20072;-56
2022/05/04 01:36:43;;;;;;;2.90;1.10;;;20.10;54.60;;;;;;5014425;28;20046;-56
2022/05/04 01:39:08;;;;;;;2.85;1.05;;;20.20;53.90;;;;;;5013615;28;20042;-55
2022/05/04 01:44:18;;;;;;;4.70;1.38;;;20.20;53.70;;;;;;5013601;28;20413;-56
2022/05/04 01:46:43;;;;;;;3.25;1.10;;;20.20;53.60;;;;;;5014194;28;20481;-56
2022/05/04 01:49:09;;;;;;;2.50;0.88;;;20.10;53.70;;;;;;5014028;28;20049;-57
2022/05/04 01:51:34;;;;;;;2.28;1.23;;;20.10;53.60;;;;;;5013288;28;20132;-57
2022/05/04 01:54:00;;;;;;;1.65;0.85;;;20.10;53.70;;;;;;5013678;28;20052;-56
2022/05/04 01:56:26;;;;;;;3.20;1.23;;;20.20;53.80;;;;;;5013862;28;20046;-57
2022/05/04 01:58:52;;;;;;;2.58;0.82;;;20.20;53.80;;;;;;5012841;28;20548;-56
2022/05/04 02:01:17;;;;;;;3.13;0.90;;;20.10;53.80;;;;;;5014030;28;20049;-56
2022/05/04 02:03:43;;;;;;;2.63;0.82;;;20.20;53.80;;;;;;5013734;28;20073;-56
2022/05/04 02:06:08;;;;;;;1.50;0.90;;;20.10;53.70;;;;;;5012629;28;20045;-56
2022/05/04 02:08:35;;;;;;;3.05;0.93;;;20.20;53.70;;;;;;5012976;28;20041;-56
2022/05/04 02:11:00;;;;;;;4.20;1.25;;;20.20;53.70;;;;;;5013114;28;20157;-56
2022/05/04 02:13:26;;;;;;;2.25;0.90;;;20.20;53.70;;;;;;5013214;28;20536;-56
2022/05/04 02:15:51;;;;;;;2.10;0.90;;;20.20;53.70;;;;;;5013678;28;20042;-56
2022/05/04 02:18:17;;;;;;;3.20;1.10;;;20.20;53.70;;;;;;5013737;28;20045;-56
2022/05/04 02:20:42;;;;;;;2.30;0.90;;;20.20;53.70;;;;;;5012659;28;20041;-56
2022/05/04 02:23:08;;;;;;;2.65;1.00;;;20.20;53.70;;;;;;5013759;28;20042;-56
2022/05/04 02:25:34;;;;;;;3.60;1.08;;;20.20;53.70;;;;;;5012628;28;20048;-56
2022/05/04 02:27:59;;;;;;;4.80;1.08;;;20.20;53.60;;;;;;5012568;28;20046;-56
2022/05/04 02:30:25;;;;;;;3.47;1.10;;;20.20;53.60;;;;;;5013752;28;20081;-56
2022/05/04 02:32:50;;;;;;;2.63;0.90;;;20.20;53.60;;;;;;5012853;28;20401;-57
2022/05/04 02:38:00;;;;;;;2.58;1.08;;;20.20;53.60;;;;;;5013332;28;20053;-56
2022/05/04 02:40:26;;;;;;;3.40;1.15;;;20.20;53.60;;;;;;5012869;28;20042;-56
2022/05/04 02:42:52;;;;;;;2.67;1.17;;;20.30;53.70;;;;;;5013699;28;20042;-56
2022/05/04 02:45:18;;;;;;;2.67;0.90;;;20.30;53.70;;;;;;5032787;28;20440;-56
2022/05/04 02:47:43;;;;;;;2.38;1.02;;;20.30;53.60;;;;;;5032068;28;20064;-56
2022/05/04 02:50:09;;;;;;;4.00;1.15;;;20.30;53.60;;;;;;5033117;28;20068;-56
2022/05/04 02:52:34;;;;;;;3.15;1.00;;;20.30;53.60;;;;;;5032288;28;20045;-56
2022/05/04 02:55:00;;;;;;;3.13;1.10;;;20.30;53.60;;;;;;5031479;28;20045;-56
2022/05/04 02:57:25;;;;;;;2.65;0.90;;;20.30;53.60;;;;;;5032887;28;20136;-56
2022/05/04 02:59:51;;;;;;;3.33;0.90;;;20.30;53.60;;;;;;5032762;28;20045;-57
2022/05/04 03:02:28;;;;;;;1.83;0.90;;;20.30;53.50;;;;;;5032047;28;20397;-56
2022/05/04 03:05:01;;;;;;;2.03;0.95;;;20.30;53.50;;;;;;5032744;28;20041;-56
2022/05/04 03:07:26;;;;;;;2.92;1.10;;;20.30;53.60;;;;;;5032975;28;20112;-57
2022/05/04 03:09:55;;;;;;;4.00;0.80;;;20.30;53.60;;;;;;5031188;28;20449;-56
2022/05/04 03:12:22;;;;;;;2.10;0.80;;;20.30;53.50;;;;;;5032663;28;20049;-56
2022/05/04 03:14:48;;;;;;;3.05;1.20;;;20.30;53.60;;;;;;5032348;28;20052;-56
2022/05/04 03:17:13;;;;;;;2.03;0.77;;;20.30;53.60;;;;;;5031861;28;20095;-56
2022/05/04 03:19:39;;;;;;;2.55;0.90;;;20.40;53.60;;;;;;5032327;28;20065;-56
2022/05/04 03:22:05;;;;;;;3.03;0.98;;;20.40;53.50;;;;;;5032477;28;20492;-56
2022/05/04 03:24:31;;;;;;;4.10;1.00;;;20.30;53.40;;;;;;5031940;28;20059;-56
2022/05/04 03:26:56;;;;;;;2.55;0.95;;;20.40;53.50;;;;;;5032327;28;20392;-56
2022/05/04 03:29:22;;;;;;;3.15;0.90;;;20.40;53.40;;;;;;5032016;28;20441;-56
2022/05/04 03:31:47;;;;;;;2.58;0.80;;;20.40;53.40;;;;;;5031833;28;20099;-56
2022/05/04 03:34:13;;;;;;;1.98;0.80;;;20.40;53.40;;;;;;5032308;28;20045;-57
2022/05/04 03:36:38;;;;;;;2.05;0.82;;;20.40;53.40;;;;;;5031464;28;20046;-57
2022/05/04 03:39:04;;;;;;;1.80;0.93;;;20.40;53.50;;;;;;5032205;28;20041;-56
2022/05/04 03:41:31;;;;;;;3.13;0.90;;;20.40;53.40;;;;;;5032543;28;20054;-56
2022/05/04 03:43:56;;;;;;;2.92;0.90;;;20.40;53.40;;;;;;5031506;28;20073;-57
2022/05/04 03:46:23;;;;;;;1.45;0.68;;;20.40;53.40;;;;;;5032352;28;20076;-56
2022/05/04 03:48:51;;;;;;;2.17;0.90;;;20.40;53.30;;;;;;5031847;28;20033;-56
2022/05/04 03:51:20;;;;;;;2.97;1.00;;;20.40;53.40;;;;;;5031465;28;20048;-56
2022/05/04 03:53:49;;;;;;;2.20;0.82;;;20.40;53.40;;;;;;5032023;28;20049;-56
2022/05/04 03:56:15;;;;;;;1.95;0.80;;;20.40;53.40;;;;;;5032427;28;20038;-56
2022/05/04 03:58:41;;;;;;;2.38;0.95;;;20.40;53.40;;;;;;5031153;28;20042;-56
2022/05/04 04:01:06;;;;;;;2.50;0.85;;;20.40;53.40;;;;;;5032142;28;20546;-57
2022/05/04 04:03:32;;;;;;;2.45;0.80;;;20.40;53.30;;;;;;5031690;28;20041;-56
2022/05/04 04:05:58;;;;;;;2.53;0.75;;;20.40;53.30;;;;;;5033942;28;20846;-56
2022/05/04 04:08:24;;;;;;;3.33;1.15;;;20.40;53.30;;;;;;5035211;28;20049;-56
2022/05/04 04:10:49;;;;;;;3.28;0.80;;;20.40;53.30;;;;;;5035285;28;20405;-56
2022/05/04 04:13:15;;;;;;;2.25;0.90;;;20.40;53.40;;;;;;5035289;28;20058;-56
2022/05/04 04:15:44;;;;;;;3.05;0.90;;;20.40;53.30;;;;;;5035393;28;20048;-56
2022/05/04 04:18:09;;;;;;;1.42;0.65;;;20.40;53.30;;;;;;5035758;28;20453;-56
2022/05/04 04:23:19;;;;;;;2.60;0.82;;;20.40;53.40;;;;;;5035492;28;20447;-57
2022/05/04 04:25:45;;;;;;;2.13;0.75;;;20.40;53.40;;;;;;5034445;28;20485;-56
2022/05/04 04:28:10;;;;;;;1.73;0.70;;;20.40;53.40;;;;;;5051347;28;20429;-56
2022/05/04 04:30:37;;;;;;;1.92;0.73;;;20.40;53.40;;;;;;5035728;28;20046;-57
2022/05/04 04:33:03;;;;;;;4.32;1.25;;;20.40;53.40;;;;;;5034082;28;20477;-56
2022/05/04 04:35:29;;;;;;;2.45;0.80;;;20.30;53.30;;;;;;5035646;28;20045;-56
2022/05/04 04:37:54;;;;;;;2.25;0.75;;;20.40;53.30;;;;;;5035426;28;20488;-56
2022/05/04 04:40:20;;;;;;;2.58;0.80;;;20.30;53.30;;;;;;5034892;28;20041;-56
2022/05/04 04:42:45;;;;;;;2.03;0.73;;;20.30;53.30;;;;;;5035062;28;20037;-57
2022/05/04 04:45:11;;;;;;;1.98;0.80;;;20.30;53.30;;;;;;5035379;28;20719;-57
2022/05/04 04:47:37;;;;;;;2.13;0.75;;;20.40;53.40;;;;;;5034572;28;20136;-56
2022/05/04 04:50:02;;;;;;;2.63;0.85;;;20.40;53.40;;;;;;5034688;28;20128;-56
2022/05/04 04:52:28;;;;;;;2.42;1.05;;;20.30;53.30;;;;;;5035132;28;20080;-56
2022/05/04 04:54:54;;;;;;;1.77;0.80;;;20.30;54.00;;;;;;5034321;28;20087;-56
2022/05/04 04:57:19;;;;;;;2.15;0.85;;;20.30;53.30;;;;;;5035291;28;20049;-56
2022/05/04 04:59:45;;;;;;;3.20;0.77;;;20.30;53.30;;;;;;5034917;28;20034;-56
2022/05/04 05:02:10;;;;;;;1.60;0.75;;;20.30;53.40;;;;;;5034244;28;20049;-56
2022/05/04 05:04:36;;;;;;;3.88;1.02;;;20.30;53.30;;;;;;5034766;28;20053;-56
2022/05/04 05:07:02;;;;;;;1.58;0.90;;;20.30;53.40;;;;;;5034654;28;20049;-56
2022/05/04 05:09:27;;;;;;;1.67;0.68;;;20.30;53.30;;;;;;5033941;28;20095;-56
2022/05/04 05:11:53;;;;;;;2.13;0.85;;;20.40;53.40;;;;;;5034429;28;20476;-56
2022/05/04 05:17:02;;;;;;;2.17;0.70;;;20.30;53.30;;;;;;5032928;28;20046;-57
2022/05/04 05:19:28;;;;;;;2.00;0.82;;;20.40;53.30;;;;;;5034365;28;20404;-56
2022/05/04 05:21:53;;;;;;;2.88;0.80;;;20.30;53.30;;;;;;5033763;28;20045;-56
2022/05/04 05:24:19;;;;;;;1.83;0.80;;;20.30;53.30;;;;;;5034830;28;20049;-56
2022/05/04 05:26:44;;;;;;;3.30;0.90;;;20.30;53.30;;;;;;5034186;28;20045;-56
2022/05/04 05:29:10;;;;;;;1.98;0.73;;;20.40;53.40;;;;;;5033754;28;20089;-56
2022/05/04 05:31:35;;;;;;;2.85;0.90;;;20.40;53.40;;;;;;5034445;28;20061;-56
2022/05/04 05:34:01;;;;;;;2.22;0.82;;;20.40;53.40;;;;;;5034153;28;20045;-56
2022/05/04 05:36:26;;;;;;;3.53;0.80;;;20.40;53.40;;;;;;5033844;28;20084;-56
2022/05/04 05:38:52;;;;;;;4.00;0.77;;;20.40;53.40;;;;;;5034088;28;20049;-56
2022/05/04 05:41:17;;;;;;;2.03;0.75;;;20.40;53.40;;;;;;5034447;28;20477;-56
2022/05/04 05:43:43;;;;;;;4.40;1.10;;;20.40;53.40;;;;;;5032825;28;20056;-56
2022/05/04 05:46:08;;;;;;;1.73;0.70;;;20.50;53.40;;;;;;5033963;28;20184;-56
2022/05/04 05:48:34;;;;;;;1.65;0.80;;;20.50;53.40;;;;;;5034157;28;20103;-56
2022/05/04 05:51:04;;;;;;;2.25;0.93;;;20.50;53.40;;;;;;5032943;28;20037;-56
2022/05/04 05:53:29;;;;;;;2.30;1.00;;;20.50;53.40;;;;;;5034024;28;20116;-56
2022/05/04 05:55:55;;;;;;;2.13;0.88;;;20.50;53.40;;;;;;5033692;28;20561;-56
2022/05/04 05:58:20;;;;;;;1.35;0.73;;;20.50;53.40;;;;;;5031629;28;20056;-56
2022/05/04 06:00:46;;;;;;;1.50;0.80;;;20.50;53.40;;;;;;5033430;28;20099;-56
2022/05/04 06:03:13;;;;;;;2.15;0.73;;;20.60;53.40;;;;;;5033805;28;20174;-56
2022/05/04 06:05:39;;;;;;;2.10;0.70;;;20.50;53.40;;;;;;5033053;28;20099;-59
2022/05/04 06:08:05;;;;;;;2.13;0.70;;;20.60;53.50;;;;;;5033898;28;20060;-56
2022/05/04 06:10:30;;;;;;;3.17;0.95;;;20.60;53.40;;;;;;5033467;28;20049;-56
2022/05/04 06:12:56;;;;;;;2.35;0.70;;;20.60;53.40;;;;;;5048008;28;20045;-56
2022/05/04 06:15:22;;;;;;;2.90;0.85;;;20.60;53.30;;;;;;5033352;28;20051;-56
2022/05/04 06:17:47;;;;;;;6.82;0.73;;;20.60;53.30;;;;;;5033318;28;20050;-56
2022/05/04 06:20:13;;;;;;;2.38;0.70;;;20.60;53.30;;;;;;5033069;28;20041;-56
2022/05/04 06:22:38;;;;;;;3.38;1.15;;;20.70;53.30;;;;;;5033462;28;20052;-56
2022/05/04 06:25:04;;;;;;;2.55;0.70;;;20.70;53.30;;;;;;5033399;28;20042;-56
2022/05/04 06:27:30;;;;;;;3.42;0.90;;;20.70;53.40;;;;;;5031785;28;20084;-57
2022/05/04 06:35:25;;;;;;;3.97;1.05;;;20.80;53.40;;;;;;5011071;28;20081;-56
2022/05/04 06:37:50;;;;;;;3.65;0.80;;;20.80;53.50;;;;;;5012496;28;20070;-56
2022/05/04 06:40:16;;;;;;;2.88;0.93;;;20.80;53.80;;;;;;5012104;28;20508;-57
2022/05/04 06:42:41;;;;;;;3.58;0.90;;;20.90;54.00;;;;;;5012759;28;20064;-56
2022/05/04 06:45:07;;;;;;;3.38;0.98;;;20.90;54.00;;;;;;5012422;28;20049;-56
2022/05/04 06:47:33;;;;;;;2.28;0.80;;;20.90;54.00;;;;;;5011948;28;20034;-56
2022/05/04 06:49:59;;;;;;;4.97;0.88;;;20.90;54.10;;;;;;5012800;28;20353;-57
2022/05/04 06:52:25;;;;;;;4.32;1.00;;;21.00;54.30;;;;;;5012072;28;20042;-56
2022/05/04 06:54:51;;;;;;;2.95;0.80;;;21.00;54.40;;;;;;5012182;28;20049;-56
2022/05/04 06:57:17;;;;;;;4.28;0.80;;;21.00;54.50;;;;;;5013138;28;20053;-57
2022/05/04 06:59:43;;;;;;;2.75;0.80;;;21.00;54.40;;;;;;5012679;28;20038;-56
2022/05/04 07:02:08;;;;;;;4.28;0.90;;;21.10;54.60;;;;;;5012224;28;20371;-56
2022/05/04 07:04:34;;;;;;;6.68;0.85;;;21.10;54.60;;;;;;5013115;28;20042;-57
2022/05/04 07:06:59;;;;;;;3.72;0.85;;;21.20;54.80;;;;;;5012511;28;20132;-57
2022/05/04 07:09:25;;;;;;;2.53;0.70;;;21.20;54.70;;;;;;5012023;28;20037;-56
2022/05/04 07:11:50;;;;;;;1.77;0.70;;;21.20;54.80;;;;;;5012374;28;20058;-56
2022/05/04 07:14:16;;;;;;;3.60;0.80;;;21.20;54.70;;;;;;5013025;28;20042;-56
2022/05/04 07:16:42;;;;;;;2.03;0.70;;;21.20;54.60;;;;;;5011826;28;20053;-56
2022/05/04 07:19:07;;;;;;;6.15;1.23;;;21.30;54.50;;;;;;5012809;28;20054;-57
2022/05/04 07:21:33;;;;;;;4.15;0.73;;;21.30;54.50;;;;;;5012064;28;20485;-56
2022/05/04 07:23:58;;;;;;;4.90;1.25;;;21.30;54.50;;;;;;5012541;28;20055;-56
2022/05/04 07:26:24;;;;;;;6.53;1.45;;;21.30;54.50;;;;;;5012874;28;20052;-56
2022/05/04 07:28:49;;;;;;;5.35;1.80;;;21.30;54.50;;;;;;5011410;28;20428;-56
2022/05/04 07:31:15;;;;;;;8.27;2.10;;;21.40;54.60;;;;;;5011828;28;20493;-55
2022/05/04 07:33:40;;;;;;;9.10;2.72;;;21.40;54.60;;;;;;5012163;28;20081;-56
2022/05/04 07:36:06;;;;;;;7.78;2.42;;;21.40;54.70;;;;;;5011898;28;20042;-56
2022/05/04 07:38:31;;;;;;;8.95;2.80;;;21.40;54.70;;;;;;5012487;28;20081;-56
2022/05/04 07:43:41;;;;;;;9.68;3.22;;;21.50;54.70;;;;;;5013928;28;20041;-56
2022/05/04 07:46:06;;;;;;;11.48;3.45;;;21.50;54.90;;;;;;5016405;28;20050;-56
2022/05/04 07:48:32;;;;;;;9.43;3.47;;;21.50;54.70;;;;;;5016532;28;20050;-57
2022/05/04 07:50:58;;;;;;;9.57;3.13;;;21.50;54.70;;;;;;5015381;28;20045;-57
2022/05/04 07:53:23;;;;;;;11.23;3.60;;;21.50;54.70;;;;;;5016607;28;20134;-56
2022/05/04 07:55:49;;;;;;;12.68;3.78;;;21.50;54.70;;;;;;5016147;28;20042;-56
2022/05/04 07:58:14;;;;;;;9.43;3.75;;;21.50;54.80;;;;;;5015901;28;20050;-56
2022/05/04 08:06:11;;;;;;;12.05;3.90;;;21.60;54.60;;;;;;5013387;28;20046;-56
2022/05/04 08:08:37;;;;;;;;;;;21.60;54.60;;;;;;5016869;28;20046;-57
2022/05/04 08:11:03;;;;;;;6.82;2.97;;;21.50;54.30;;;;;;5014999;28;19940;-56
2022/05/04 08:13:29;;;;;;;8.15;3.03;;;21.60;54.40;;;;;;5016307;28;20061;-56
2022/05/04 08:15:54;;;;;;;11.32;3.00;;;21.50;54.30;;;;;;5015710;28;20054;-56
2022/05/04 08:18:20;;;;;;;8.80;3.20;;;21.60;54.30;;;;;;5015337;28;20050;-56
2022/05/04 08:20:46;;;;;;;10.30;3.47;;;21.50;54.30;;;;;;5015975;28;20052;-56
2022/05/04 08:23:12;;;;;;;10.13;3.60;;;21.50;54.30;;;;;;5016244;28;20096;-56
2022/05/04 08:25:38;;;;;;;9.68;3.35;;;21.50;54.30;;;;;;5015474;28;20057;-56
2022/05/04 08:28:04;;;;;;;9.00;2.88;;;21.50;54.30;;;;;;5016026;28;20041;-57
2022/05/04 08:30:29;;;;;;;9.10;3.38;;;21.60;54.40;;;;;;5015910;28;20100;-57
2022/05/04 08:32:55;;;;;;;7.55;2.95;;;21.50;54.30;;;;;;5014581;28;20476;-56
2022/05/04 08:35:20;;;;;;;6.00;2.50;;;21.60;54.40;;;;;;5015947;28;20045;-56
2022/05/04 08:37:46;;;;;;;8.45;2.75;;;21.60;54.40;;;;;;5014117;28;20444;-57
2022/05/04 08:40:12;;;;;;;9.40;3.08;;;21.50;54.20;;;;;;5013645;28;20122;-56
2022/05/04 08:42:40;;;;;;;9.43;3.60;;;21.50;54.10;;;;;;5015808;28;20049;-56
2022/05/04 08:45:06;;;;;;;7.55;2.60;;;21.50;54.10;;;;;;5015826;28;20038;-56
2022/05/04 08:47:32;;;;;;;13.18;3.45;;;21.50;54.10;;;;;;5015057;28;20184;-57
2022/05/04 08:49:57;;;;;;;10.40;3.10;;;21.50;54.10;;;;;;5014195;28;20499;-57
2022/05/04 08:52:23;;;;;;;6.18;2.63;;;21.50;54.10;;;;;;5014485;28;20049;-56
2022/05/04 08:54:51;;;;;;;7.28;2.70;;;21.50;54.10;;;;;;5014462;28;20042;-56
2022/05/04 08:57:17;;;;;;;8.93;2.90;;;21.50;54.10;;;;;;5015486;28;20046;-57
2022/05/04 08:59:43;;;;;;;7.32;2.60;;;21.50;54.10;;;;;;5014922;28;20377;-56
2022/05/04 09:02:10;;;;;;;8.95;2.58;;;21.50;54.10;;;;;;5014770;28;20061;-57
2022/05/04 09:04:35;;;;;;;7.28;2.75;;;21.50;54.10;;;;;;5014993;28;20393;-56
2022/05/04 09:07:01;;;;;;;8.15;3.00;;;21.50;54.10;;;;;;5013092;28;20038;-56
2022/05/04 09:09:27;;;;;;;5.43;2.63;;;21.50;54.10;;;;;;5015320;28;20482;-57
2022/05/04 09:11:52;;;;;;;7.38;2.92;;;21.50;54.10;;;;;;5014500;28;20058;-57
2022/05/04 09:14:20;;;;;;;7.47;2.78;;;21.40;54.00;;;;;;5014301;28;20049;-56
2022/05/04 09:16:49;;;;;;;7.50;2.60;;;21.40;54.00;;;;;;5015038;28;20058;-57
2022/05/04 09:19:15;;;;;;;6.88;2.33;;;21.40;54.00;;;;;;5015104;28;20081;-56
2022/05/04 09:21:41;;;;;;;7.63;2.63;;;21.40;54.00;;;;;;5013923;28;20497;-56
2022/05/04 09:24:07;;;;;;;5.85;2.58;;;21.50;54.00;;;;;;5015175;28;20066;-57
2022/05/04 09:26:39;;;;;;;6.43;2.53;;;21.40;54.00;;;;;;5015117;28;20457;-57
2022/05/04 09:29:06;;;;;;;7.57;3.10;;;21.40;53.90;;;;;;5014077;28;20034;-57
2022/05/04 09:31:31;;;;;;;7.43;2.47;;;21.50;54.00;;;;;;5014679;28;20457;-56
2022/05/04 09:34:02;;;;;;;6.70;2.63;;;21.50;54.00;;;;;;5014673;28;20129;-56
2022/05/04 09:36:35;;;;;;;6.97;2.60;;;21.50;54.00;;;;;;5014252;28;20129;-56
2022/05/04 09:45:14;;;;;;;6.93;2.40;;;21.40;53.90;;;;;;5014408;28;20041;-56
2022/05/04 09:47:45;;;;;;;6.43;2.40;;;21.40;54.00;;;;;;5014107;28;20117;-56
2022/05/04 09:50:10;;;;;;;8.10;2.42;;;21.40;54.00;;;;;;5014026;28;20038;-56
2022/05/04 09:52:56;;;;;;;7.75;2.25;;;21.40;54.00;;;;;;5014463;28;20053;-57
2022/05/04 09:55:24;;;;;;;5.13;1.98;;;21.40;54.00;;;;;;5013437;28;20038;-56
2022/05/04 09:57:51;;;;;;;6.20;2.40;;;21.40;54.00;;;;;;5013632;28;20046;-56
2022/05/04 10:00:19;;;;;;;6.25;2.30;;;21.40;54.00;;;;;;5014113;28;20052;-56
2022/05/04 10:02:44;;;;;;;;;;;21.40;54.00;;;;;;5014286;28;20164;-56
2022/05/04 10:05:10;;;;;;;5.88;2.70;;;21.40;54.00;;;;;;5013516;28;20012;-56
2022/05/04 10:07:36;;;;;;;7.00;2.20;;;21.40;54.00;;;;;;5014422;28;20038;-57
2022/05/04 10:10:06;;;;;;;6.35;2.72;;;21.50;54.10;;;;;;5013897;28;20054;-57
2022/05/04 10:12:33;;;;;;;6.53;2.30;;;21.40;54.00;;;;;;5013180;28;20485;-56
2022/05/04 10:14:59;;;;;;;6.05;2.20;;;21.40;53.90;;;;;;5012382;28;20500;-56
2022/05/04 10:17:25;;;;;;;5.57;2.00;;;21.40;54.00;;;;;;5012239;28;20057;-56
2022/05/04 10:20:03;;;;;;;7.57;2.22;;;21.50;54.00;;;;;;5012127;28;20053;-56
2022/05/04 10:22:31;;;;;;;5.97;2.13;;;21.50;54.00;;;;;;4995401;28;20092;-56
2022/05/04 10:24:57;;;;;;;;;;;21.50;54.00;;;;;;4992231;28;20046;-56
2022/05/04 10:27:25;;;;;;;7.40;2.33;;;21.40;53.80;;;;;;4993738;28;19979;-56
2022/05/04 10:32:48;;;;;;;5.93;2.17;;;21.40;52.60;;;;;;4991818;28;20054;-56
2022/05/04 10:35:26;;;;;;;7.88;2.30;;;21.40;51.90;;;;;;4993708;28;20302;-56
2022/05/04 10:37:58;;;;;;;6.70;2.33;;;21.40;51.30;;;;;;5010721;28;20073;-61
2022/05/04 10:40:34;;;;;;;4.63;1.77;;;21.40;51.20;;;;;;5012823;28;20048;-57
2022/05/04 10:43:01;;;;;;;6.18;2.13;;;21.40;51.30;;;;;;5012760;28;20123;-56
2022/05/04 10:45:34;;;;;;;6.38;2.05;;;21.40;51.30;;;;;;5011980;28;20034;-56
2022/05/04 10:48:14;;;;;;;4.55;2.13;;;21.40;51.30;;;;;;5010353;28;20045;-56
2022/05/04 10:51:02;;;;;;;4.35;1.85;;;21.40;51.40;;;;;;5012855;28;20149;-57
2022/05/04 10:53:28;;;;;;;6.85;2.03;;;21.40;51.50;;;;;;5012500;28;20049;-56
2022/05/04 10:56:00;;;;;;;5.75;2.00;;;21.40;51.60;;;;;;5012839;28;20049;-56
2022/05/04 10:58:42;;;;;;;3.83;1.83;;;21.40;51.70;;;;;;5013051;28;20049;-56
2022/05/04 11:01:17;;;;;;;6.53;2.00;;;21.40;51.80;;;;;;5012578;28;20545;-56
2022/05/04 11:04:11;;;;;;;5.03;1.80;;;21.40;51.90;;;;;;5012759;28;20100;-57
2022/05/04 11:06:37;;;;;;;5.93;1.83;;;21.40;51.90;;;;;;5003703;28;20087;-57
2022/05/04 11:09:04;;;;;;;5.63;1.88;;;21.50;52.10;;;;;;5012663;28;20049;-57
2022/05/04 11:11:30;;;;;;;4.13;1.60;;;21.40;52.10;;;;;;5013181;28;20128;-57
2022/05/04 11:13:55;;;;;;;5.28;2.05;;;21.40;52.20;;;;;;5012042;28;20080;-57
2022/05/04 11:16:22;;;;;;;4.30;1.70;;;21.40;52.20;;;;;;5012985;28;20050;-57
2022/05/04 11:18:48;;;;;;;5.10;2.03;;;21.40;52.30;;;;;;5013022;28;20038;-58
2022/05/04 11:21:14;;;;;;;5.03;1.70;;;21.50;52.40;;;;;;5012113;28;20188;-57
2022/05/04 11:23:40;;;;;;;4.63;1.90;;;21.50;52.50;;;;;;5012682;28;20070;-57
2022/05/04 11:26:06;;;;;;;5.65;1.55;;;21.50;52.60;;;;;;5011382;28;20050;-58
2022/05/04 11:28:32;;;;;;;7.47;2.08;;;21.50;52.70;;;;;;5011113;28;20044;-56
2022/05/04 11:30:58;;;;;;;4.63;1.90;;;21.50;52.70;;;;;;5009923;28;20050;-57
2022/05/04 11:33:23;;;;;;;7.55;1.73;;;21.50;52.80;;;;;;5011603;28;20038;-56
2022/05/04 11:35:54;;;;;;;7.50;2.08;;;21.50;52.70;;;;;;5011699;28;20052;-56
2022/05/04 11:38:20;;;;;;;12.73;2.28;;;21.50;52.70;;;;;;5011778;28;20071;-56
2022/05/04 11:40:46;;;;;;;4.22;1.73;;;21.50;52.70;;;;;;5011765;28;20176;-57
2022/05/04 11:43:27;;;;;;;5.88;1.85;;;21.50;52.80;;;;;;5011159;28;20537;-57
2022/05/04 11:45:56;;;;;;;7.82;2.00;;;21.60;52.90;;;;;;5010834;28;20046;-57
2022/05/04 11:48:22;;;;;;;5.63;1.85;;;21.50;52.70;;;;;;5006786;28;20141;-56
2022/05/04 11:50:48;;;;;;;8.07;2.03;;;21.50;52.50;;;;;;5010833;28;20045;-56
2022/05/04 11:53:14;;;;;;;6.85;1.92;;;21.50;52.20;;;;;;5011623;28;20042;-56
2022/05/04 11:55:40;;;;;;;6.93;1.67;;;21.50;52.00;;;;;;5011771;28;20038;-56
2022/05/04 11:58:09;;;;;;;6.05;1.70;;;21.50;52.50;;;;;;5011784;28;20064;-56
2022/05/04 12:00:35;;;;;;;3.72;1.38;;;21.60;52.30;;;;;;5012280;28;20042;-56
2022/05/04 12:03:01;;;;;;;6.88;1.88;;;21.50;51.40;;;;;;5011173;28;20044;-57
2022/05/04 12:05:26;;;;;;;4.05;1.60;;;21.50;51.10;;;;;;5012107;28;20489;-57
2022/05/04 12:07:52;;;;;;;6.45;2.00;;;21.50;51.10;;;;;;5010957;28;20050;-57
2022/05/04 12:10:17;;;;;;;7.78;2.00;;;21.60;51.20;;;;;;5011327;28;20097;-57
2022/05/04 12:12:43;;;;;;;6.03;1.80;;;21.60;51.30;;;;;;5010965;28;20510;-57
2022/05/04 12:15:10;;;;;;;5.00;1.75;;;21.60;51.40;;;;;;5011234;28;20038;-57
2022/05/04 12:17:36;;;;;;;9.57;2.63;;;21.60;51.50;;;;;;5010486;28;20564;-57
2022/05/04 12:20:02;;;;;;;7.40;1.98;;;21.60;51.70;;;;;;5011251;28;20217;-57
2022/05/04 12:22:28;;;;;;;6.53;2.28;;;21.60;51.70;;;;;;5011968;28;20517;-57
2022/05/04 12:24:53;;;;;;;7.80;1.98;;;21.60;51.80;;;;;;5009644;28;20046;-57
2022/05/04 12:27:19;;;;;;;8.50;1.90;;;21.70;51.90;;;;;;5015530;28;20084;-56
2022/05/04 12:35:13;;;;;;;7.93;2.05;;;21.70;51.90;;;;;;5009593;28;20046;-56
2022/05/04 12:37:38;;;;;;;6.65;2.15;;;21.70;52.00;;;;;;5015053;28;20499;-56
2022/05/04 12:40:05;;;;;;;4.85;1.92;;;21.70;52.10;;;;;;5014573;28;20104;-56
2022/05/04 12:42:31;;;;;;;6.40;2.13;;;21.70;52.10;;;;;;5012734;28;20038;-56
2022/05/04 12:44:58;;;;;;;7.32;1.70;;;21.80;52.20;;;;;;5014328;28;20121;-56
2022/05/04 12:47:24;;;;;;;9.57;2.05;;;21.70;52.20;;;;;;5014063;28;20450;-56
2022/05/04 12:49:50;;;;;;;4.78;2.28;;;21.80;52.30;;;;;;5014883;28;20034;-56
2022/05/04 12:52:15;;;;;;;5.03;1.45;;;21.80;52.40;;;;;;5012870;28;20049;-56
2022/05/04 12:54:42;;;;;;;5.35;1.60;;;21.70;52.40;;;;;;5014500;28;20405;-56
2022/05/04 12:57:07;;;;;;;5.03;1.50;;;21.70;52.40;;;;;;5013554;28;20050;-56
2022/05/04 12:59:33;;;;;;;4.72;1.50;;;21.80;52.40;;;;;;5014160;28;20061;-56
2022/05/04 13:01:58;;;;;;;6.30;1.58;;;21.80;52.40;;;;;;5014464;28;20502;-56
2022/05/04 13:04:24;;;;;;;5.93;1.52;;;21.80;52.50;;;;;;4997313;28;20056;-56
2022/05/04 13:06:49;;;;;;;4.80;1.45;;;21.80;53.20;;;;;;5013591;28;20044;-56
2022/05/04 13:09:15;;;;;;;6.82;1.70;;;21.80;52.60;;;;;;5014859;28;20042;-57
2022/05/04 13:11:41;;;;;;;4.55;1.63;;;21.80;52.70;;;;;;5013965;28;20060;-57
2022/05/04 13:14:06;;;;;;;3.65;1.33;;;21.80;52.70;;;;;;5014313;28;20042;-57
2022/05/04 13:16:32;;;;;;;4.32;1.50;;;21.90;52.70;;;;;;5015044;28;20042;-57
2022/05/04 13:18:58;;;;;;;6.40;1.50;;;21.90;52.60;;;;;;5014163;28;20865;-56
2022/05/04 13:21:23;;;;;;;4.45;1.33;;;21.90;52.70;;;;;;5013846;28;20042;-56
2022/05/04 13:23:49;;;;;;;5.55;1.42;;;21.90;52.70;;;;;;5012789;28;20053;-56
2022/05/04 13:26:17;;;;;;;4.53;1.50;;;21.90;52.70;;;;;;5014655;28;20430;-56